Mayo, Maryland
Current Conditions -  °F | °C
As of 6:54 PM on Monday 20 Oct 2014 (Local Time) from KNAK Reporting Station
Clear Clear  
Wind Chill: 61°   Ceiling: Unl
Heat Index: 61°   Visibility: 10mi
Dew Point: 44°   Wind: 8mph
Humidity: 54%   Direction: 180°S
Pressure: 29.96"   Gusts: NA
Location:  38.89°N, 76.51°W
Report Text: KNAK 202254Z AUTO 18007KT 10SM CLR 16/07 A2996 RMK AO2 SLP147 T01610067
Loading
Personal Weather Stations






























Interactive Weather Map
Tropical Storm Tracking
New forecast layout! Learn more

10-Day Weather Forecast

Advertisements
Track Severe Weather on mobile